sensor_id;sensor_type;location;lat;lon;timestamp;P1;durP1;ratioP1;P2;durP2;ratioP2
18651;SDS011;9455;54.302;10.124;2023-10-13T00:01:46;2.80;;;1.50;;
18651;SDS011;9455;54.302;10.124;2023-10-13T00:04:13;1.77;;;1.13;;
18651;SDS011;9455;54.302;10.124;2023-10-13T00:06:40;6.17;;;1.60;;
18651;SDS011;9455;54.302;10.124;2023-10-13T00:09:07;7.33;;;1.20;;
18651;SDS011;9455;54.302;10.124;2023-10-13T00:11:40;3.27;;;1.27;;
18651;SDS011;9455;54.302;10.124;2023-10-13T00:14:09;15.57;;;1.57;;
18651;SDS011;9455;54.302;10.124;2023-10-13T00:16:36;2.97;;;1.17;;
18651;SDS011;9455;54.302;10.124;2023-10-13T00:19:07;3.80;;;1.50;;
18651;SDS011;9455;54.302;10.124;2023-10-13T00:21:38;4.47;;;1.47;;
18651;SDS011;9455;54.302;10.124;2023-10-13T00:24:05;13.80;;;2.07;;
18651;SDS011;9455;54.302;10.124;2023-10-13T00:26:39;4.63;;;1.50;;
18651;SDS011;9455;54.302;10.124;2023-10-13T00:29:08;14.37;;;1.43;;
18651;SDS011;9455;54.302;10.124;2023-10-13T00:31:41;6.13;;;1.53;;
18651;SDS011;9455;54.302;10.124;2023-10-13T00:34:10;4.90;;;1.30;;
18651;SDS011;9455;54.302;10.124;2023-10-13T00:36:43;6.37;;;1.67;;
18651;SDS011;9455;54.302;10.124;2023-10-13T00:39:13;17.67;;;7.37;;
18651;SDS011;9455;54.302;10.124;2023-10-13T00:41:41;49.97;;;14.33;;
18651;SDS011;9455;54.302;10.124;2023-10-13T00:44:17;10.27;;;3.53;;
18651;SDS011;9455;54.302;10.124;2023-10-13T00:46:50;15.13;;;5.17;;
18651;SDS011;9455;54.302;10.124;2023-10-13T00:49:21;11.13;;;4.83;;
18651;SDS011;9455;54.302;10.124;2023-10-13T00:51:48;6.90;;;2.77;;
18651;SDS011;9455;54.302;10.124;2023-10-13T00:54:15;4.23;;;2.20;;
18651;SDS011;9455;54.302;10.124;2023-10-13T00:56:52;5.67;;;1.50;;
18651;SDS011;9455;54.302;10.124;2023-10-13T00:59:29;5.17;;;1.83;;
18651;SDS011;9455;54.302;10.124;2023-10-13T01:01:58;2.50;;;1.83;;
18651;SDS011;9455;54.302;10.124;2023-10-13T01:04:46;1.30;;;1.30;;
18651;SDS011;9455;54.302;10.124;2023-10-13T01:07:12;2.23;;;1.67;;
18651;SDS011;9455;54.302;10.124;2023-10-13T01:09:41;7.83;;;1.50;;
18651;SDS011;9455;54.302;10.124;2023-10-13T01:12:07;2.93;;;1.77;;
18651;SDS011;9455;54.302;10.124;2023-10-13T01:14:34;10.83;;;1.70;;
18651;SDS011;9455;54.302;10.124;2023-10-13T01:17:00;1.67;;;1.57;;
18651;SDS011;9455;54.302;10.124;2023-10-13T01:19:29;7.40;;;1.87;;
18651;SDS011;9455;54.302;10.124;2023-10-13T01:22:05;6.03;;;2.00;;
18651;SDS011;9455;54.302;10.124;2023-10-13T01:24:33;7.07;;;2.10;;
18651;SDS011;9455;54.302;10.124;2023-10-13T01:27:00;3.27;;;2.17;;
18651;SDS011;9455;54.302;10.124;2023-10-13T01:29:40;4.27;;;1.30;;
18651;SDS011;9455;54.302;10.124;2023-10-13T01:32:05;5.80;;;1.70;;
18651;SDS011;9455;54.302;10.124;2023-10-13T01:34:37;6.43;;;1.90;;
18651;SDS011;9455;54.302;10.124;2023-10-13T01:37:03;4.77;;;2.33;;
18651;SDS011;9455;54.302;10.124;2023-10-13T01:39:32;5.13;;;2.20;;
18651;SDS011;9455;54.302;10.124;2023-10-13T01:41:58;8.40;;;1.80;;
18651;SDS011;9455;54.302;10.124;2023-10-13T01:44:25;2.87;;;1.47;;
18651;SDS011;9455;54.302;10.124;2023-10-13T01:46:53;8.07;;;2.20;;
18651;SDS011;9455;54.302;10.124;2023-10-13T01:49:19;8.30;;;1.83;;
18651;SDS011;9455;54.302;10.124;2023-10-13T01:51:48;8.77;;;1.83;;
18651;SDS011;9455;54.302;10.124;2023-10-13T01:54:14;2.23;;;1.70;;
18651;SDS011;9455;54.302;10.124;2023-10-13T01:56:42;4.70;;;1.73;;
18651;SDS011;9455;54.302;10.124;2023-10-13T01:59:09;4.90;;;1.87;;
18651;SDS011;9455;54.302;10.124;2023-10-13T02:01:36;5.57;;;1.57;;
18651;SDS011;9455;54.302;10.124;2023-10-13T02:04:03;3.20;;;1.77;;
18651;SDS011;9455;54.302;10.124;2023-10-13T02:06:29;8.07;;;1.90;;
18651;SDS011;9455;54.302;10.124;2023-10-13T02:09:01;12.43;;;2.43;;
18651;SDS011;9455;54.302;10.124;2023-10-13T02:11:35;10.43;;;2.33;;
18651;SDS011;9455;54.302;10.124;2023-10-13T02:14:04;5.77;;;2.40;;
18651;SDS011;9455;54.302;10.124;2023-10-13T02:16:30;8.13;;;2.57;;
18651;SDS011;9455;54.302;10.124;2023-10-13T02:18:57;10.27;;;2.20;;
18651;SDS011;9455;54.302;10.124;2023-10-13T02:21:29;9.40;;;2.17;;
18651;SDS011;9455;54.302;10.124;2023-10-13T02:23:57;4.40;;;1.60;;
18651;SDS011;9455;54.302;10.124;2023-10-13T02:26:30;10.87;;;2.57;;
18651;SDS011;9455;54.302;10.124;2023-10-13T02:28:57;4.53;;;1.97;;
18651;SDS011;9455;54.302;10.124;2023-10-13T02:31:27;5.03;;;2.00;;
18651;SDS011;9455;54.302;10.124;2023-10-13T02:33:54;2.17;;;1.70;;
18651;SDS011;9455;54.302;10.124;2023-10-13T02:36:19;7.60;;;2.47;;
18651;SDS011;9455;54.302;10.124;2023-10-13T02:39:01;10.77;;;2.17;;
18651;SDS011;9455;54.302;10.124;2023-10-13T02:41:32;9.63;;;2.43;;
18651;SDS011;9455;54.302;10.124;2023-10-13T02:44:02;4.73;;;2.07;;
18651;SDS011;9455;54.302;10.124;2023-10-13T02:46:32;6.37;;;2.40;;
18651;SDS011;9455;54.302;10.124;2023-10-13T02:49:01;5.33;;;2.13;;
18651;SDS011;9455;54.302;10.124;2023-10-13T02:51:34;2.40;;;2.10;;
18651;SDS011;9455;54.302;10.124;2023-10-13T02:54:01;5.27;;;2.50;;
18651;SDS011;9455;54.302;10.124;2023-10-13T02:56:34;6.93;;;1.97;;
18651;SDS011;9455;54.302;10.124;2023-10-13T02:59:00;8.33;;;2.30;;
18651;SDS011;9455;54.302;10.124;2023-10-13T03:01:30;11.20;;;2.70;;
18651;SDS011;9455;54.302;10.124;2023-10-13T03:03:59;9.43;;;3.33;;
18651;SDS011;9455;54.302;10.124;2023-10-13T03:06:27;13.77;;;3.50;;
18651;SDS011;9455;54.302;10.124;2023-10-13T03:08:57;10.10;;;3.50;;
18651;SDS011;9455;54.302;10.124;2023-10-13T03:11:25;17.13;;;3.20;;
18651;SDS011;9455;54.302;10.124;2023-10-13T03:13:57;18.10;;;4.90;;
18651;SDS011;9455;54.302;10.124;2023-10-13T03:16:23;17.93;;;4.53;;
18651;SDS011;9455;54.302;10.124;2023-10-13T03:18:54;14.03;;;4.57;;
18651;SDS011;9455;54.302;10.124;2023-10-13T03:21:21;15.87;;;4.90;;
18651;SDS011;9455;54.302;10.124;2023-10-13T03:23:57;13.33;;;4.43;;
18651;SDS011;9455;54.302;10.124;2023-10-13T03:26:29;22.83;;;5.53;;
18651;SDS011;9455;54.302;10.124;2023-10-13T03:29:00;18.50;;;4.80;;
18651;SDS011;9455;54.302;10.124;2023-10-13T03:31:28;27.73;;;6.30;;
18651;SDS011;9455;54.302;10.124;2023-10-13T03:33:56;24.50;;;6.13;;
18651;SDS011;9455;54.302;10.124;2023-10-13T03:36:25;21.13;;;5.70;;
18651;SDS011;9455;54.302;10.124;2023-10-13T03:39:09;26.17;;;5.73;;
18651;SDS011;9455;54.302;10.124;2023-10-13T03:41:36;21.63;;;6.27;;
18651;SDS011;9455;54.302;10.124;2023-10-13T03:44:04;27.33;;;6.67;;
18651;SDS011;9455;54.302;10.124;2023-10-13T03:46:38;31.33;;;7.27;;
18651;SDS011;9455;54.302;10.124;2023-10-13T03:49:07;33.73;;;8.17;;
18651;SDS011;9455;54.302;10.124;2023-10-13T03:51:38;23.43;;;6.40;;
18651;SDS011;9455;54.302;10.124;2023-10-13T03:54:05;26.23;;;6.47;;
18651;SDS011;9455;54.302;10.124;2023-10-13T03:56:33;15.47;;;5.40;;
18651;SDS011;9455;54.302;10.124;2023-10-13T03:59:05;27.03;;;6.60;;
18651;SDS011;9455;54.302;10.124;2023-10-13T04:01:35;17.70;;;6.63;;
18651;SDS011;9455;54.302;10.124;2023-10-13T04:04:12;25.10;;;5.73;;
18651;SDS011;9455;54.302;10.124;2023-10-13T04:06:40;20.80;;;5.63;;
18651;SDS011;9455;54.302;10.124;2023-10-13T04:09:38;18.17;;;5.30;;
18651;SDS011;9455;54.302;10.124;2023-10-13T04:12:35;14.97;;;5.20;;
18651;SDS011;9455;54.302;10.124;2023-10-13T04:15:19;16.70;;;5.50;;
18651;SDS011;9455;54.302;10.124;2023-10-13T04:17:49;23.87;;;6.63;;
18651;SDS011;9455;54.302;10.124;2023-10-13T04:20:17;21.50;;;5.67;;
18651;SDS011;9455;54.302;10.124;2023-10-13T04:23:03;19.27;;;5.90;;
18651;SDS011;9455;54.302;10.124;2023-10-13T04:25:47;12.97;;;5.47;;
18651;SDS011;9455;54.302;10.124;2023-10-13T04:28:46;19.70;;;6.40;;
18651;SDS011;9455;54.302;10.124;2023-10-13T04:31:17;19.50;;;5.97;;
18651;SDS011;9455;54.302;10.124;2023-10-13T04:34:01;27.27;;;6.10;;
18651;SDS011;9455;54.302;10.124;2023-10-13T04:36:40;21.30;;;6.33;;
18651;SDS011;9455;54.302;10.124;2023-10-13T04:39:10;19.23;;;6.20;;
18651;SDS011;9455;54.302;10.124;2023-10-13T04:41:42;24.17;;;6.03;;
18651;SDS011;9455;54.302;10.124;2023-10-13T04:44:08;17.83;;;5.33;;
18651;SDS011;9455;54.302;10.124;2023-10-13T04:47:04;13.77;;;5.03;;
18651;SDS011;9455;54.302;10.124;2023-10-13T04:49:34;14.43;;;4.43;;
18651;SDS011;9455;54.302;10.124;2023-10-13T04:52:17;15.90;;;5.80;;
18651;SDS011;9455;54.302;10.124;2023-10-13T04:55:01;11.10;;;4.10;;
18651;SDS011;9455;54.302;10.124;2023-10-13T04:57:42;10.87;;;5.67;;
18651;SDS011;9455;54.302;10.124;2023-10-13T05:00:12;10.17;;;4.37;;
18651;SDS011;9455;54.302;10.124;2023-10-13T05:02:59;15.67;;;4.67;;
18651;SDS011;9455;54.302;10.124;2023-10-13T05:05:42;16.63;;;5.17;;
18651;SDS011;9455;54.302;10.124;2023-10-13T05:08:18;10.53;;;5.03;;
18651;SDS011;9455;54.302;10.124;2023-10-13T05:11:03;13.40;;;4.77;;
18651;SDS011;9455;54.302;10.124;2023-10-13T05:13:47;16.50;;;5.27;;
18651;SDS011;9455;54.302;10.124;2023-10-13T05:16:31;18.97;;;5.83;;
18651;SDS011;9455;54.302;10.124;2023-10-13T05:19:16;9.30;;;4.43;;
18651;SDS011;9455;54.302;10.124;2023-10-13T05:22:00;15.87;;;6.00;;
18651;SDS011;9455;54.302;10.124;2023-10-13T05:24:44;16.50;;;5.80;;
18651;SDS011;9455;54.302;10.124;2023-10-13T05:27:28;15.33;;;5.00;;
18651;SDS011;9455;54.302;10.124;2023-10-13T05:30:12;14.63;;;5.53;;
18651;SDS011;9455;54.302;10.124;2023-10-13T05:32:56;14.17;;;4.40;;
18651;SDS011;9455;54.302;10.124;2023-10-13T05:35:41;12.60;;;5.17;;
18651;SDS011;9455;54.302;10.124;2023-10-13T05:38:25;18.77;;;4.93;;
18651;SDS011;9455;54.302;10.124;2023-10-13T05:41:09;7.43;;;4.93;;
18651;SDS011;9455;54.302;10.124;2023-10-13T05:43:53;11.73;;;5.33;;
18651;SDS011;9455;54.302;10.124;2023-10-13T05:46:37;14.17;;;5.57;;
18651;SDS011;9455;54.302;10.124;2023-10-13T05:49:26;12.63;;;4.87;;
18651;SDS011;9455;54.302;10.124;2023-10-13T05:52:07;8.77;;;4.43;;
18651;SDS011;9455;54.302;10.124;2023-10-13T05:54:44;11.30;;;5.10;;
18651;SDS011;9455;54.302;10.124;2023-10-13T05:57:29;11.70;;;5.20;;
18651;SDS011;9455;54.302;10.124;2023-10-13T06:00:13;12.57;;;5.10;;
18651;SDS011;9455;54.302;10.124;2023-10-13T06:02:58;12.10;;;5.97;;
18651;SDS011;9455;54.302;10.124;2023-10-13T06:05:42;12.60;;;5.53;;
18651;SDS011;9455;54.302;10.124;2023-10-13T06:08:27;10.77;;;5.13;;
18651;SDS011;9455;54.302;10.124;2023-10-13T06:11:11;14.37;;;5.87;;
18651;SDS011;9455;54.302;10.124;2023-10-13T06:13:55;12.23;;;5.17;;
18651;SDS011;9455;54.302;10.124;2023-10-13T06:16:39;14.03;;;6.53;;
18651;SDS011;9455;54.302;10.124;2023-10-13T06:19:23;18.60;;;6.97;;
18651;SDS011;9455;54.302;10.124;2023-10-13T06:22:07;17.87;;;6.87;;
18651;SDS011;9455;54.302;10.124;2023-10-13T06:24:52;20.23;;;7.43;;
18651;SDS011;9455;54.302;10.124;2023-10-13T06:27:36;17.03;;;7.63;;
18651;SDS011;9455;54.302;10.124;2023-10-13T06:30:19;28.17;;;8.77;;
18651;SDS011;9455;54.302;10.124;2023-10-13T06:32:46;22.10;;;9.57;;
18651;SDS011;9455;54.302;10.124;2023-10-13T06:35:15;23.50;;;10.00;;
18651;SDS011;9455;54.302;10.124;2023-10-13T06:37:47;26.13;;;9.47;;
18651;SDS011;9455;54.302;10.124;2023-10-13T06:40:16;25.33;;;9.27;;
18651;SDS011;9455;54.302;10.124;2023-10-13T06:42:51;30.20;;;11.00;;
18651;SDS011;9455;54.302;10.124;2023-10-13T06:45:18;38.47;;;11.83;;
18651;SDS011;9455;54.302;10.124;2023-10-13T06:47:46;35.20;;;11.47;;
18651;SDS011;9455;54.302;10.124;2023-10-13T06:50:17;29.20;;;11.17;;
18651;SDS011;9455;54.302;10.124;2023-10-13T06:52:44;32.47;;;11.87;;
18651;SDS011;9455;54.302;10.124;2023-10-13T06:55:13;30.13;;;11.17;;
18651;SDS011;9455;54.302;10.124;2023-10-13T06:57:45;37.47;;;13.17;;
18651;SDS011;9455;54.302;10.124;2023-10-13T07:00:12;33.87;;;12.17;;
18651;SDS011;9455;54.302;10.124;2023-10-13T07:02:51;32.43;;;12.13;;
18651;SDS011;9455;54.302;10.124;2023-10-13T07:05:18;37.83;;;13.03;;
18651;SDS011;9455;54.302;10.124;2023-10-13T07:07:45;43.23;;;13.30;;
18651;SDS011;9455;54.302;10.124;2023-10-13T07:10:13;39.90;;;12.53;;
18651;SDS011;9455;54.302;10.124;2023-10-13T07:12:40;35.13;;;12.63;;
18651;SDS011;9455;54.302;10.124;2023-10-13T07:15:10;33.83;;;13.77;;
18651;SDS011;9455;54.302;10.124;2023-10-13T07:17:44;31.57;;;12.00;;
18651;SDS011;9455;54.302;10.124;2023-10-13T07:20:12;39.03;;;12.83;;
18651;SDS011;9455;54.302;10.124;2023-10-13T07:22:48;36.53;;;13.00;;
18651;SDS011;9455;54.302;10.124;2023-10-13T07:25:22;34.37;;;13.13;;
18651;SDS011;9455;54.302;10.124;2023-10-13T07:27:51;30.27;;;12.30;;
18651;SDS011;9455;54.302;10.124;2023-10-13T07:30:20;27.90;;;11.00;;
18651;SDS011;9455;54.302;10.124;2023-10-13T07:32:51;35.00;;;12.73;;
18651;SDS011;9455;54.302;10.124;2023-10-13T07:35:18;28.97;;;11.97;;
18651;SDS011;9455;54.302;10.124;2023-10-13T07:37:49;33.30;;;11.87;;
18651;SDS011;9455;54.302;10.124;2023-10-13T07:40:17;34.93;;;11.30;;
18651;SDS011;9455;54.302;10.124;2023-10-13T07:43:04;31.80;;;11.40;;
18651;SDS011;9455;54.302;10.124;2023-10-13T07:45:37;29.23;;;10.93;;
18651;SDS011;9455;54.302;10.124;2023-10-13T07:48:05;25.40;;;10.07;;
18651;SDS011;9455;54.302;10.124;2023-10-13T07:50:37;31.37;;;11.07;;
18651;SDS011;9455;54.302;10.124;2023-10-13T07:53:04;31.83;;;11.73;;
18651;SDS011;9455;54.302;10.124;2023-10-13T07:55:43;22.30;;;9.80;;
18651;SDS011;9455;54.302;10.124;2023-10-13T07:58:10;25.77;;;10.50;;
18651;SDS011;9455;54.302;10.124;2023-10-13T08:00:40;25.03;;;10.00;;
18651;SDS011;9455;54.302;10.124;2023-10-13T08:03:19;23.73;;;9.97;;
18651;SDS011;9455;54.302;10.124;2023-10-13T08:06:00;27.07;;;10.57;;
18651;SDS011;9455;54.302;10.124;2023-10-13T08:08:32;27.67;;;10.43;;
18651;SDS011;9455;54.302;10.124;2023-10-13T08:11:09;28.27;;;10.73;;
18651;SDS011;9455;54.302;10.124;2023-10-13T08:13:49;24.37;;;10.10;;
18651;SDS011;9455;54.302;10.124;2023-10-13T08:16:20;30.97;;;10.60;;
18651;SDS011;9455;54.302;10.124;2023-10-13T08:18:48;25.70;;;10.53;;
18651;SDS011;9455;54.302;10.124;2023-10-13T08:21:15;23.87;;;10.23;;
18651;SDS011;9455;54.302;10.124;2023-10-13T08:23:45;24.70;;;10.20;;
18651;SDS011;9455;54.302;10.124;2023-10-13T08:26:28;30.10;;;11.50;;
18651;SDS011;9455;54.302;10.124;2023-10-13T08:29:18;22.10;;;10.27;;
18651;SDS011;9455;54.302;10.124;2023-10-13T08:32:03;22.00;;;9.10;;
18651;SDS011;9455;54.302;10.124;2023-10-13T08:34:48;24.00;;;9.90;;
18651;SDS011;9455;54.302;10.124;2023-10-13T08:37:35;18.93;;;9.13;;
18651;SDS011;9455;54.302;10.124;2023-10-13T08:40:27;21.40;;;9.37;;
18651;SDS011;9455;54.302;10.124;2023-10-13T08:43:17;18.80;;;8.20;;
18651;SDS011;9455;54.302;10.124;2023-10-13T08:45:44;17.77;;;8.13;;
18651;SDS011;9455;54.302;10.124;2023-10-13T08:48:21;19.77;;;8.53;;
18651;SDS011;9455;54.302;10.124;2023-10-13T08:50:56;16.57;;;7.90;;
18651;SDS011;9455;54.302;10.124;2023-10-13T08:53:29;14.07;;;6.70;;
18651;SDS011;9455;54.302;10.124;2023-10-13T08:55:58;15.33;;;7.70;;
18651;SDS011;9455;54.302;10.124;2023-10-13T08:58:32;14.87;;;7.50;;
18651;SDS011;9455;54.302;10.124;2023-10-13T09:01:17;11.57;;;6.40;;
18651;SDS011;9455;54.302;10.124;2023-10-13T09:04:00;11.70;;;6.60;;
18651;SDS011;9455;54.302;10.124;2023-10-13T09:06:41;14.33;;;7.17;;
18651;SDS011;9455;54.302;10.124;2023-10-13T09:09:12;11.40;;;6.73;;
18651;SDS011;9455;54.302;10.124;2023-10-13T09:11:51;12.67;;;6.13;;
18651;SDS011;9455;54.302;10.124;2023-10-13T09:14:30;10.20;;;6.33;;
18651;SDS011;9455;54.302;10.124;2023-10-13T09:17:02;10.63;;;6.23;;
18651;SDS011;9455;54.302;10.124;2023-10-13T09:19:44;7.43;;;5.23;;
18651;SDS011;9455;54.302;10.124;2023-10-13T09:22:21;10.07;;;5.60;;
18651;SDS011;9455;54.302;10.124;2023-10-13T09:24:55;6.73;;;4.43;;
18651;SDS011;9455;54.302;10.124;2023-10-13T09:27:25;5.83;;;4.27;;
18651;SDS011;9455;54.302;10.124;2023-10-13T09:29:55;5.67;;;4.17;;
18651;SDS011;9455;54.302;10.124;2023-10-13T09:32:23;6.50;;;4.30;;
18651;SDS011;9455;54.302;10.124;2023-10-13T09:34:50;7.07;;;4.07;;
18651;SDS011;9455;54.302;10.124;2023-10-13T09:37:16;7.07;;;3.87;;
18651;SDS011;9455;54.302;10.124;2023-10-13T09:39:46;5.93;;;3.90;;
18651;SDS011;9455;54.302;10.124;2023-10-13T09:42:16;8.37;;;3.60;;
18651;SDS011;9455;54.302;10.124;2023-10-13T09:44:43;5.30;;;3.80;;
18651;SDS011;9455;54.302;10.124;2023-10-13T09:47:15;3.90;;;3.57;;
18651;SDS011;9455;54.302;10.124;2023-10-13T09:49:57;5.33;;;3.57;;
18651;SDS011;9455;54.302;10.124;2023-10-13T09:52:30;5.17;;;3.70;;
18651;SDS011;9455;54.302;10.124;2023-10-13T09:55:00;3.87;;;3.37;;
18651;SDS011;9455;54.302;10.124;2023-10-13T09:57:36;5.07;;;3.53;;
18651;SDS011;9455;54.302;10.124;2023-10-13T10:00:10;5.83;;;3.73;;
18651;SDS011;9455;54.302;10.124;2023-10-13T10:02:56;3.43;;;3.10;;
18651;SDS011;9455;54.302;10.124;2023-10-13T10:05:31;3.47;;;3.17;;
18651;SDS011;9455;54.302;10.124;2023-10-13T10:07:59;3.63;;;3.33;;
18651;SDS011;9455;54.302;10.124;2023-10-13T10:10:29;5.40;;;2.97;;
18651;SDS011;9455;54.302;10.124;2023-10-13T10:13:12;3.80;;;3.17;;
18651;SDS011;9455;54.302;10.124;2023-10-13T10:15:48;3.33;;;3.13;;
18651;SDS011;9455;54.302;10.124;2023-10-13T10:18:17;3.57;;;3.23;;
18651;SDS011;9455;54.302;10.124;2023-10-13T10:20:48;4.10;;;3.10;;
18651;SDS011;9455;54.302;10.124;2023-10-13T10:23:23;6.00;;;3.50;;
18651;SDS011;9455;54.302;10.124;2023-10-13T10:25:52;3.67;;;3.37;;
18651;SDS011;9455;54.302;10.124;2023-10-13T10:28:34;3.33;;;3.03;;
18651;SDS011;9455;54.302;10.124;2023-10-13T10:31:04;5.67;;;3.90;;
18651;SDS011;9455;54.302;10.124;2023-10-13T10:33:34;4.63;;;3.77;;
18651;SDS011;9455;54.302;10.124;2023-10-13T10:36:02;3.27;;;3.00;;
18651;SDS011;9455;54.302;10.124;2023-10-13T10:38:30;4.37;;;3.53;;
18651;SDS011;9455;54.302;10.124;2023-10-13T10:41:04;20.43;;;7.73;;
18651;SDS011;9455;54.302;10.124;2023-10-13T10:43:35;3.87;;;3.57;;
18651;SDS011;9455;54.302;10.124;2023-10-13T10:46:14;24.97;;;10.43;;
18651;SDS011;9455;54.302;10.124;2023-10-13T10:48:42;10.17;;;5.13;;
18651;SDS011;9455;54.302;10.124;2023-10-13T10:51:10;15.07;;;6.33;;
18651;SDS011;9455;54.302;10.124;2023-10-13T10:53:46;7.07;;;4.23;;
18651;SDS011;9455;54.302;10.124;2023-10-13T10:56:14;3.63;;;3.33;;
18651;SDS011;9455;54.302;10.124;2023-10-13T10:58:50;9.43;;;4.20;;
18651;SDS011;9455;54.302;10.124;2023-10-13T11:01:25;6.93;;;4.10;;
18651;SDS011;9455;54.302;10.124;2023-10-13T11:03:59;9.63;;;4.17;;
18651;SDS011;9455;54.302;10.124;2023-10-13T11:06:34;7.60;;;3.57;;
18651;SDS011;9455;54.302;10.124;2023-10-13T11:09:07;9.47;;;5.00;;
18651;SDS011;9455;54.302;10.124;2023-10-13T11:11:43;9.00;;;5.33;;
18651;SDS011;9455;54.302;10.124;2023-10-13T11:14:19;7.07;;;4.77;;
18651;SDS011;9455;54.302;10.124;2023-10-13T11:16:48;5.07;;;4.30;;
18651;SDS011;9455;54.302;10.124;2023-10-13T11:19:19;8.63;;;4.33;;
18651;SDS011;9455;54.302;10.124;2023-10-13T11:21:52;4.50;;;3.83;;
18651;SDS011;9455;54.302;10.124;2023-10-13T11:24:20;5.10;;;4.03;;
18651;SDS011;9455;54.302;10.124;2023-10-13T11:26:47;6.50;;;4.40;;
18651;SDS011;9455;54.302;10.124;2023-10-13T11:29:15;6.07;;;4.10;;
18651;SDS011;9455;54.302;10.124;2023-10-13T11:31:44;6.27;;;4.40;;
18651;SDS011;9455;54.302;10.124;2023-10-13T11:34:18;9.60;;;4.10;;
18651;SDS011;9455;54.302;10.124;2023-10-13T11:36:45;10.00;;;5.17;;
18651;SDS011;9455;54.302;10.124;2023-10-13T11:39:13;10.43;;;5.70;;
18651;SDS011;9455;54.302;10.124;2023-10-13T11:41:44;7.10;;;4.20;;
18651;SDS011;9455;54.302;10.124;2023-10-13T11:44:18;7.10;;;3.93;;
18651;SDS011;9455;54.302;10.124;2023-10-13T11:46:57;8.93;;;4.47;;
18651;SDS011;9455;54.302;10.124;2023-10-13T11:49:40;6.67;;;3.67;;
18651;SDS011;9455;54.302;10.124;2023-10-13T11:52:07;8.50;;;4.07;;
18651;SDS011;9455;54.302;10.124;2023-10-13T11:54:43;12.23;;;4.57;;
18651;SDS011;9455;54.302;10.124;2023-10-13T11:57:12;7.40;;;3.43;;
18651;SDS011;9455;54.302;10.124;2023-10-13T11:59:41;7.80;;;4.73;;
18651;SDS011;9455;54.302;10.124;2023-10-13T12:02:18;6.13;;;3.33;;
18651;SDS011;9455;54.302;10.124;2023-10-13T12:05:03;15.87;;;3.67;;
18651;SDS011;9455;54.302;10.124;2023-10-13T12:07:37;17.50;;;4.50;;
18651;SDS011;9455;54.302;10.124;2023-10-13T12:10:11;6.67;;;3.93;;
18651;SDS011;9455;54.302;10.124;2023-10-13T12:12:45;11.00;;;3.87;;
18651;SDS011;9455;54.302;10.124;2023-10-13T12:15:18;12.10;;;3.87;;
18651;SDS011;9455;54.302;10.124;2023-10-13T12:17:59;6.77;;;3.30;;
18651;SDS011;9455;54.302;10.124;2023-10-13T12:20:28;11.93;;;4.50;;
18651;SDS011;9455;54.302;10.124;2023-10-13T12:22:59;10.63;;;3.73;;
18651;SDS011;9455;54.302;10.124;2023-10-13T12:25:37;12.77;;;5.00;;
18651;SDS011;9455;54.302;10.124;2023-10-13T12:28:20;20.13;;;6.20;;
18651;SDS011;9455;54.302;10.124;2023-10-13T12:30:48;18.10;;;5.73;;
18651;SDS011;9455;54.302;10.124;2023-10-13T12:33:17;10.60;;;5.33;;
18651;SDS011;9455;54.302;10.124;2023-10-13T12:35:50;6.70;;;4.67;;
18651;SDS011;9455;54.302;10.124;2023-10-13T12:38:28;10.03;;;5.00;;
18651;SDS011;9455;54.302;10.124;2023-10-13T12:41:17;7.43;;;5.27;;
18651;SDS011;9455;54.302;10.124;2023-10-13T12:44:01;7.67;;;3.30;;
18651;SDS011;9455;54.302;10.124;2023-10-13T12:46:46;10.60;;;4.80;;
18651;SDS011;9455;54.302;10.124;2023-10-13T12:49:30;13.63;;;4.97;;
18651;SDS011;9455;54.302;10.124;2023-10-13T12:52:31;6.63;;;5.10;;
18651;SDS011;9455;54.302;10.124;2023-10-13T12:54:58;23.10;;;5.10;;
18651;SDS011;9455;54.302;10.124;2023-10-13T12:57:32;11.53;;;4.97;;
18651;SDS011;9455;54.302;10.124;2023-10-13T12:59:59;10.10;;;4.47;;
18651;SDS011;9455;54.302;10.124;2023-10-13T13:02:41;7.83;;;3.90;;
18651;SDS011;9455;54.302;10.124;2023-10-13T13:05:08;10.77;;;3.73;;
18651;SDS011;9455;54.302;10.124;2023-10-13T13:07:36;9.63;;;4.50;;
18651;SDS011;9455;54.302;10.124;2023-10-13T13:10:09;8.80;;;4.00;;
18651;SDS011;9455;54.302;10.124;2023-10-13T13:12:38;7.20;;;4.07;;
18651;SDS011;9455;54.302;10.124;2023-10-13T13:15:05;8.87;;;4.83;;
18651;SDS011;9455;54.302;10.124;2023-10-13T13:17:33;4.97;;;3.20;;
18651;SDS011;9455;54.302;10.124;2023-10-13T13:20:00;10.77;;;4.33;;
18651;SDS011;9455;54.302;10.124;2023-10-13T13:22:35;15.70;;;3.90;;
18651;SDS011;9455;54.302;10.124;2023-10-13T13:25:02;17.40;;;4.33;;
18651;SDS011;9455;54.302;10.124;2023-10-13T13:27:32;7.77;;;3.77;;
18651;SDS011;9455;54.302;10.124;2023-10-13T13:30:00;14.17;;;5.27;;
18651;SDS011;9455;54.302;10.124;2023-10-13T13:32:27;8.57;;;3.80;;
18651;SDS011;9455;54.302;10.124;2023-10-13T13:34:54;7.13;;;4.17;;
18651;SDS011;9455;54.302;10.124;2023-10-13T13:37:28;6.60;;;3.43;;
18651;SDS011;9455;54.302;10.124;2023-10-13T13:39:54;6.43;;;3.17;;
18651;SDS011;9455;54.302;10.124;2023-10-13T13:42:21;17.50;;;4.10;;
18651;SDS011;9455;54.302;10.124;2023-10-13T13:44:47;17.87;;;3.57;;
18651;SDS011;9455;54.302;10.124;2023-10-13T13:47:15;9.13;;;3.70;;
18651;SDS011;9455;54.302;10.124;2023-10-13T13:49:42;7.37;;;3.87;;
18651;SDS011;9455;54.302;10.124;2023-10-13T13:52:16;11.93;;;2.97;;
18651;SDS011;9455;54.302;10.124;2023-10-13T13:54:46;6.10;;;3.13;;
18651;SDS011;9455;54.302;10.124;2023-10-13T13:57:13;9.27;;;3.83;;
18651;SDS011;9455;54.302;10.124;2023-10-13T13:59:40;13.07;;;3.10;;
18651;SDS011;9455;54.302;10.124;2023-10-13T14:02:10;11.90;;;2.87;;
18651;SDS011;9455;54.302;10.124;2023-10-13T14:04:46;8.87;;;3.83;;
18651;SDS011;9455;54.302;10.124;2023-10-13T14:07:15;6.60;;;3.80;;
18651;SDS011;9455;54.302;10.124;2023-10-13T14:09:44;10.50;;;3.23;;
18651;SDS011;9455;54.302;10.124;2023-10-13T14:12:10;11.80;;;4.73;;
18651;SDS011;9455;54.302;10.124;2023-10-13T14:14:55;14.67;;;3.60;;
18651;SDS011;9455;54.302;10.124;2023-10-13T14:17:21;3.10;;;2.80;;
18651;SDS011;9455;54.302;10.124;2023-10-13T14:19:55;8.97;;;3.73;;
18651;SDS011;9455;54.302;10.124;2023-10-13T14:22:22;6.47;;;3.50;;
18651;SDS011;9455;54.302;10.124;2023-10-13T14:24:51;7.37;;;3.37;;
18651;SDS011;9455;54.302;10.124;2023-10-13T14:27:20;10.93;;;3.37;;
18651;SDS011;9455;54.302;10.124;2023-10-13T14:29:48;10.63;;;3.17;;
18651;SDS011;9455;54.302;10.124;2023-10-13T14:32:18;6.17;;;2.83;;
18651;SDS011;9455;54.302;10.124;2023-10-13T14:34:49;10.97;;;3.03;;
18651;SDS011;9455;54.302;10.124;2023-10-13T14:37:20;7.40;;;3.50;;
18651;SDS011;9455;54.302;10.124;2023-10-13T14:39:51;10.60;;;3.80;;
18651;SDS011;9455;54.302;10.124;2023-10-13T14:42:21;7.80;;;3.33;;
18651;SDS011;9455;54.302;10.124;2023-10-13T14:44:48;9.70;;;3.13;;
18651;SDS011;9455;54.302;10.124;2023-10-13T14:47:20;10.70;;;3.50;;
18651;SDS011;9455;54.302;10.124;2023-10-13T14:49:49;12.90;;;3.87;;
18651;SDS011;9455;54.302;10.124;2023-10-13T14:52:20;12.60;;;4.17;;
18651;SDS011;9455;54.302;10.124;2023-10-13T14:54:47;10.27;;;4.07;;
18651;SDS011;9455;54.302;10.124;2023-10-13T14:57:20;11.93;;;3.33;;
18651;SDS011;9455;54.302;10.124;2023-10-13T14:59:49;11.77;;;3.90;;
18651;SDS011;9455;54.302;10.124;2023-10-13T15:02:17;17.60;;;4.90;;
18651;SDS011;9455;54.302;10.124;2023-10-13T15:04:43;15.43;;;4.47;;
18651;SDS011;9455;54.302;10.124;2023-10-13T15:07:13;6.30;;;3.83;;
18651;SDS011;9455;54.302;10.124;2023-10-13T15:09:41;10.20;;;3.77;;
18651;SDS011;9455;54.302;10.124;2023-10-13T15:12:08;12.53;;;4.23;;
18651;SDS011;9455;54.302;10.124;2023-10-13T15:14:35;16.03;;;4.07;;